createdAt,value
2023-05-12T00:00:31.648Z,101568.09
2023-05-12T00:03:12.465Z,101564.59
2023-05-12T00:05:39.711Z,101561.16
2023-05-12T00:08:07.498Z,101559.38
2023-05-12T00:10:35.745Z,101568.25
2023-05-12T00:13:03.650Z,101562.13
2023-05-12T00:15:30.707Z,101561.28
2023-05-12T00:17:59.544Z,101562.22
2023-05-12T00:20:27.056Z,101566.63
2023-05-12T00:22:54.388Z,101562.25
2023-05-12T00:25:21.435Z,101566.66
2023-05-12T00:27:48.757Z,101561.41
2023-05-12T00:30:16.004Z,101557.00
2023-05-12T00:32:43.505Z,101553.53
2023-05-12T00:35:10.525Z,101551.81
2023-05-12T00:37:38.081Z,101555.34
2023-05-12T00:40:05.619Z,101554.50
2023-05-12T00:42:35.182Z,101553.63
2023-05-12T00:45:03.404Z,101557.13
2023-05-12T00:47:31.135Z,101559.75
2023-05-12T00:50:00.555Z,101558.03
2023-05-12T00:52:28.078Z,101554.56
2023-05-12T00:54:55.560Z,101558.97
2023-05-12T00:57:26.006Z,101554.56
2023-05-12T00:59:52.996Z,101552.84
2023-05-12T01:02:20.899Z,101559.03
2023-05-12T01:04:48.038Z,101563.41
2023-05-12T01:07:22.923Z,101559.00
2023-05-12T01:09:57.439Z,101557.28
2023-05-12T01:12:25.642Z,101559.94
2023-05-12T01:14:55.247Z,101561.72
2023-05-12T01:17:36.124Z,101571.41
2023-05-12T01:20:07.358Z,101561.72
2023-05-12T01:22:36.706Z,101559.94
2023-05-12T01:25:08.152Z,101566.13
2023-05-12T01:27:39.704Z,101559.09
2023-05-12T01:30:07.971Z,101563.50
2023-05-12T01:32:37.056Z,101556.53
2023-05-12T01:35:04.544Z,101567.06
2023-05-12T01:37:32.023Z,101560.91
2023-05-12T01:39:59.055Z,101562.69
2023-05-12T01:42:26.516Z,101558.31
2023-05-12T01:44:53.504Z,101563.56
2023-05-12T01:47:21.757Z,101566.25
2023-05-12T01:49:49.072Z,101567.09
2023-05-12T01:52:16.484Z,101570.63
2023-05-12T01:54:43.496Z,101570.63
2023-05-12T01:57:10.927Z,101568.91
2023-05-12T01:59:37.930Z,101571.53
2023-05-12T02:02:05.930Z,101567.13
2023-05-12T02:04:33.179Z,101564.50
2023-05-12T02:07:01.091Z,101568.00
2023-05-12T02:09:28.017Z,101570.66
2023-05-12T02:11:55.430Z,101569.78
2023-05-12T02:14:22.479Z,101577.69
2023-05-12T02:22:26.540Z,101570.69
2023-05-12T02:24:53.619Z,101577.72
2023-05-12T02:27:20.979Z,101576.84
2023-05-12T02:29:48.082Z,101578.59
2023-05-12T02:32:15.458Z,101575.97
2023-05-12T02:34:42.481Z,101578.59
2023-05-12T02:37:11.645Z,101574.22
2023-05-12T02:39:38.678Z,101573.34
2023-05-12T02:42:07.262Z,101583.00
2023-05-12T02:44:34.402Z,101570.69
2023-05-12T02:47:01.875Z,101573.34
2023-05-12T02:49:28.877Z,101569.81
2023-05-12T02:54:40.184Z,101576.84
2023-05-12T02:57:07.700Z,101584.72
2023-05-12T02:59:34.716Z,101577.69
2023-05-12T03:02:02.469Z,101582.94
2023-05-12T03:04:30.621Z,101577.63
2023-05-12T03:06:58.044Z,101578.44
2023-05-12T03:09:25.677Z,101585.34
2023-05-12T03:11:53.055Z,101582.56
2023-05-12T03:14:20.043Z,101591.22
2023-05-12T03:16:47.602Z,101589.22
2023-05-12T03:19:14.736Z,101589.81
2023-05-12T03:21:42.516Z,101588.59
2023-05-12T03:24:09.750Z,101583.06
2023-05-12T03:26:37.227Z,101595.03
2023-05-12T03:29:04.228Z,101594.59
2023-05-12T03:31:31.600Z,101597.50
2023-05-12T03:33:58.602Z,101591.53
2023-05-12T03:36:27.112Z,101589.06
2023-05-12T03:38:54.194Z,101592.84
2023-05-12T03:41:22.159Z,101599.34
2023-05-12T03:43:49.510Z,101596.16
2023-05-12T03:46:16.960Z,101592.22
2023-05-12T03:48:44.087Z,101603.38
2023-05-12T03:51:11.624Z,101601.09
2023-05-12T03:53:44.703Z,101590.94
2023-05-12T03:56:12.292Z,101606.41
2023-05-12T03:58:40.772Z,101600.34
2023-05-12T04:01:08.740Z,101599.34
2023-05-12T04:03:36.131Z,101610.69
2023-05-12T04:06:04.643Z,101603.38
2023-05-12T04:08:31.761Z,101599.63
2023-05-12T04:11:01.150Z,101609.41
2023-05-12T04:13:35.535Z,101603.09
2023-05-12T04:16:07.289Z,101609.94
2023-05-12T04:18:40.342Z,101608.81
2023-05-12T04:21:10.344Z,101599.56
2023-05-12T04:23:37.550Z,101610.16
2023-05-12T04:26:05.452Z,101608.97
2023-05-12T04:28:32.718Z,101607.06
2023-05-12T04:31:06.846Z,101612.28
2023-05-12T04:33:33.904Z,101610.88
2023-05-12T04:36:02.655Z,101608.91
2023-05-12T04:38:30.017Z,101610.81
2023-05-12T04:40:59.301Z,101622.69
2023-05-12T04:46:00.350Z,101621.72
2023-05-12T04:48:48.224Z,101619.19
2023-05-12T04:51:39.485Z,101619.66
2023-05-12T04:54:16.293Z,101609.03
2023-05-12T04:56:49.614Z,101613.22
2023-05-12T04:59:20.131Z,101616.97
2023-05-12T05:01:48.655Z,101616.16
2023-05-12T05:04:21.058Z,101614.69
2023-05-12T05:06:52.461Z,101620.88
2023-05-12T05:09:19.977Z,101616.59
2023-05-12T05:11:47.760Z,101620.25
2023-05-12T05:14:17.454Z,101607.56
2023-05-12T05:16:46.007Z,101617.25
2023-05-12T05:19:21.454Z,101615.03
2023-05-12T05:21:58.233Z,101619.47
2023-05-12T05:24:26.634Z,101623.91
2023-05-12T05:26:54.106Z,101623.59
2023-05-12T05:29:29.185Z,101627.25
2023-05-12T05:31:56.863Z,101621.22
2023-05-12T05:34:24.541Z,101625.47
2023-05-12T05:36:56.165Z,101631.63
2023-05-12T05:39:25.626Z,101632.03
2023-05-12T05:41:52.730Z,101628.06
2023-05-12T05:44:20.228Z,101629.78
2023-05-12T05:46:50.028Z,101634.44
2023-05-12T05:49:18.812Z,101634.28
2023-05-12T05:51:46.711Z,101627.78
2023-05-12T05:54:17.129Z,101628.28
2023-05-12T05:56:44.229Z,101630.66
2023-05-12T05:59:14.326Z,101627.28
2023-05-12T06:01:42.005Z,101629.94
2023-05-12T06:04:12.196Z,101633.47
2023-05-12T06:06:39.878Z,101628.34
2023-05-12T06:09:09.723Z,101631.34
2023-05-12T06:11:36.970Z,101625.06
2023-05-12T06:14:05.165Z,101619.47
2023-05-12T06:16:33.090Z,101626.88
2023-05-12T06:19:00.941Z,101617.31
2023-05-12T06:21:28.202Z,101619.19
2023-05-12T06:23:57.069Z,101616.72
2023-05-12T06:26:24.153Z,101623.09
2023-05-12T06:28:51.897Z,101623.16
2023-05-12T06:31:19.158Z,101621.41
2023-05-12T06:33:46.774Z,101615.97
2023-05-12T06:36:14.183Z,101606.81
2023-05-12T06:38:42.354Z,101614.84
2023-05-12T06:41:09.497Z,101612.16
2023-05-12T06:43:37.015Z,101610.16
2023-05-12T06:46:04.201Z,101614.50
2023-05-12T06:48:31.745Z,101616.00
2023-05-12T06:50:58.932Z,101619.19
2023-05-12T06:53:28.509Z,101615.53
2023-05-12T06:55:56.320Z,101621.03
2023-05-12T06:58:24.415Z,101623.13
2023-05-12T07:03:37.213Z,101623.91
2023-05-12T07:06:04.853Z,101626.25
2023-05-12T07:08:32.435Z,101620.69
2023-05-12T07:11:02.593Z,101608.88
2023-05-12T07:13:30.142Z,101620.63
2023-05-12T07:15:57.234Z,101621.06
2023-05-12T07:18:25.284Z,101622.09
2023-05-12T07:20:52.507Z,101620.16
2023-05-12T07:23:22.605Z,101616.66
2023-05-12T07:25:49.782Z,101615.75
2023-05-12T07:28:17.819Z,101619.78
2023-05-12T07:30:44.956Z,101610.34
2023-05-12T07:33:13.016Z,101610.41
2023-05-12T07:36:01.092Z,101615.25
2023-05-12T07:38:46.366Z,101608.91
2023-05-12T07:41:13.761Z,101613.56
2023-05-12T07:43:40.857Z,101613.19
2023-05-12T07:46:11.108Z,101605.59
2023-05-12T07:48:40.328Z,101601.41
2023-05-12T07:51:08.688Z,101593.69
2023-05-12T07:53:37.927Z,101601.63
2023-05-12T07:56:07.759Z,101591.47
2023-05-12T07:58:35.630Z,101590.66
2023-05-12T08:01:06.141Z,101595.88
2023-05-12T08:03:35.265Z,101602.22
2023-05-12T08:06:04.889Z,101601.09
2023-05-12T08:08:32.090Z,101605.13
2023-05-12T08:11:00.186Z,101602.19
2023-05-12T08:13:28.819Z,101596.13
2023-05-12T08:15:56.281Z,101600.31
2023-05-12T08:18:23.461Z,101602.28
2023-05-12T08:20:51.170Z,101600.00
2023-05-12T08:23:18.586Z,101593.81
2023-05-12T08:25:48.657Z,101602.69
2023-05-12T08:31:01.494Z,101605.34
2023-05-12T08:33:29.926Z,101598.66
2023-05-12T08:35:57.445Z,101594.03
2023-05-12T08:38:24.753Z,101600.72
2023-05-12T08:41:19.648Z,101598.56
2023-05-12T08:43:50.250Z,101605.69
2023-05-12T08:46:33.064Z,101600.50
2023-05-12T08:49:05.129Z,101600.53
2023-05-12T08:51:33.350Z,101596.03
2023-05-12T08:54:01.004Z,101585.03
2023-05-12T08:59:01.494Z,101576.41
2023-05-12T09:01:30.522Z,101577.28
2023-05-12T09:03:57.718Z,101580.19
2023-05-12T09:06:25.478Z,101571.16
2023-05-12T09:08:52.994Z,101579.94
2023-05-12T09:11:22.204Z,101570.81
2023-05-12T09:14:07.360Z,101573.19
2023-05-12T09:16:44.772Z,101569.47
2023-05-12T09:19:12.161Z,101564.69
2023-05-12T09:21:42.506Z,101572.88
2023-05-12T09:24:15.050Z,101567.38
2023-05-12T09:27:03.728Z,101563.78
2023-05-12T09:29:33.498Z,101559.47
2023-05-12T09:32:06.376Z,101554.25
2023-05-12T09:34:37.233Z,101552.50
2023-05-12T09:37:32.686Z,101546.97
2023-05-12T09:40:11.646Z,101542.03
2023-05-12T09:42:38.947Z,101539.19
2023-05-12T09:45:09.480Z,101535.34
2023-05-12T09:47:39.738Z,101543.94
2023-05-12T09:50:08.942Z,101540.22
2023-05-12T09:52:39.857Z,101534.81
2023-05-12T09:55:13.415Z,101528.72
2023-05-12T09:57:42.696Z,101530.44
2023-05-12T10:00:31.286Z,101523.94
2023-05-12T10:03:07.832Z,101527.66
2023-05-12T10:05:37.284Z,101535.41
2023-05-12T10:08:08.383Z,101528.53
2023-05-12T10:10:37.321Z,101529.16
2023-05-12T10:13:09.985Z,101527.91
2023-05-12T10:15:38.472Z,101528.53
2023-05-12T10:18:05.812Z,101533.41
2023-05-12T10:20:38.790Z,101523.13
2023-05-12T10:23:07.412Z,101526.44
2023-05-12T10:25:37.376Z,101520.47
2023-05-12T10:28:05.282Z,101528.00
2023-05-12T10:30:33.554Z,101526.28
2023-05-12T10:33:02.006Z,101520.47
2023-05-12T10:35:34.976Z,101513.75
2023-05-12T10:38:06.536Z,101507.53
2023-05-12T10:40:34.405Z,101514.16
2023-05-12T10:43:01.953Z,101511.00
2023-05-12T10:45:36.706Z,101520.28
2023-05-12T10:48:08.453Z,101522.69
2023-05-12T10:50:36.057Z,101519.41
2023-05-12T10:53:03.166Z,101518.13
2023-05-12T10:55:52.557Z,101515.72
2023-05-12T11:01:10.750Z,101496.97
2023-05-12T11:03:39.772Z,101493.78
2023-05-12T11:06:10.359Z,101503.91
2023-05-12T11:08:37.916Z,101508.25
2023-05-12T11:11:43.456Z,101504.34
2023-05-12T11:14:12.338Z,101497.38
2023-05-12T11:17:12.901Z,101500.09
2023-05-12T11:19:44.843Z,101487.78
2023-05-12T11:22:13.588Z,101484.50
2023-05-12T11:24:42.465Z,101496.50
2023-05-12T11:27:14.878Z,101495.72
2023-05-12T11:29:45.012Z,101487.59
2023-05-12T11:32:15.689Z,101490.59
2023-05-12T11:34:43.228Z,101493.53
2023-05-12T11:37:20.227Z,101488.44
2023-05-12T11:42:50.270Z,101487.66
2023-05-12T11:45:24.661Z,101476.66
2023-05-12T11:47:54.132Z,101485.03
2023-05-12T11:50:23.127Z,101477.56
2023-05-12T11:52:51.741Z,101478.75
2023-05-12T11:55:24.669Z,101480.53
2023-05-12T11:58:01.215Z,101484.38
2023-05-12T12:00:34.879Z,101483.59
2023-05-12T12:03:13.704Z,101478.31
2023-05-12T12:06:01.578Z,101471.13
2023-05-12T12:08:29.064Z,101471.84
2023-05-12T12:10:56.854Z,101463.25
2023-05-12T12:13:25.993Z,101462.75
2023-05-12T12:15:56.209Z,101464.88
2023-05-12T12:18:24.874Z,101469.06
2023-05-12T12:20:53.659Z,101466.41
2023-05-12T12:23:20.965Z,101466.50
2023-05-12T12:25:48.521Z,101455.28
2023-05-12T12:28:15.948Z,101451.03
2023-05-12T12:30:45.141Z,101451.16
2023-05-12T12:33:16.869Z,101454.03
2023-05-12T12:35:45.826Z,101459.97
2023-05-12T12:38:13.206Z,101453.69
2023-05-12T12:40:40.803Z,101458.00
2023-05-12T12:43:08.055Z,101463.38
2023-05-12T12:45:38.734Z,101457.81
2023-05-12T12:48:07.056Z,101467.91
2023-05-12T12:50:36.914Z,101469.69
2023-05-12T12:53:07.442Z,101450.47
2023-05-12T12:55:39.112Z,101461.34
2023-05-12T12:58:07.235Z,101453.13
2023-05-12T13:00:39.352Z,101446.59
2023-05-12T13:03:08.982Z,101448.16
2023-05-12T13:05:37.379Z,101447.16
2023-05-12T13:08:10.633Z,101446.50
2023-05-12T13:10:39.122Z,101452.44
2023-05-12T13:13:06.505Z,101455.03
2023-05-12T13:18:49.626Z,101445.28
2023-05-12T13:21:41.072Z,101450.88
2023-05-12T13:26:53.458Z,101448.16
2023-05-12T13:29:20.841Z,101452.56
2023-05-12T13:32:15.006Z,101446.88
2023-05-12T13:35:01.037Z,101450.91
2023-05-12T13:37:29.816Z,101444.06
2023-05-12T13:40:10.484Z,101442.31
2023-05-12T13:42:40.913Z,101453.50
2023-05-12T13:45:09.482Z,101445.75
2023-05-12T13:47:40.948Z,101448.38
2023-05-12T13:50:09.213Z,101449.22
2023-05-12T13:52:36.279Z,101452.91
2023-05-12T13:55:10.982Z,101441.34
2023-05-12T13:57:40.573Z,101443.13
2023-05-12T14:00:11.316Z,101433.19
2023-05-12T14:02:41.096Z,101429.81
2023-05-12T14:05:09.331Z,101425.16
2023-05-12T14:07:36.606Z,101429.41
2023-05-12T14:10:06.111Z,101432.50
2023-05-12T14:12:37.399Z,101432.28
2023-05-12T14:15:24.007Z,101430.47
2023-05-12T14:17:58.731Z,101429.03
2023-05-12T14:20:27.866Z,101436.06
2023-05-12T14:22:56.829Z,101424.50
2023-05-12T14:25:25.348Z,101431.59
2023-05-12T14:27:55.881Z,101430.06
2023-05-12T14:30:23.934Z,101434.78
2023-05-12T14:32:51.400Z,101436.50
2023-05-12T14:35:20.116Z,101435.44
2023-05-12T14:37:49.396Z,101429.81
2023-05-12T14:40:18.641Z,101433.81
2023-05-12T14:42:54.479Z,101427.38
2023-05-12T14:45:22.550Z,101421.69
2023-05-12T14:47:50.091Z,101433.44
2023-05-12T14:50:21.016Z,101429.31
2023-05-12T14:52:52.523Z,101425.47
2023-05-12T14:55:23.350Z,101435.78
2023-05-12T14:57:50.655Z,101433.34
2023-05-12T15:00:30.183Z,101426.63
2023-05-12T15:02:57.806Z,101422.56
2023-05-12T15:05:41.189Z,101421.41
2023-05-12T15:10:59.468Z,101426.31
2023-05-12T15:13:26.999Z,101411.38
2023-05-12T15:15:58.694Z,101423.25
2023-05-12T15:18:28.453Z,101419.88
2023-05-12T15:21:04.195Z,101411.22
2023-05-12T15:23:35.606Z,101414.59
2023-05-12T15:26:27.249Z,101413.66
2023-05-12T15:28:59.072Z,101422.66
2023-05-12T15:34:11.571Z,101415.16
2023-05-12T15:36:39.567Z,101410.13
2023-05-12T15:39:08.611Z,101403.38
2023-05-12T15:41:38.187Z,101408.06
2023-05-12T15:44:07.207Z,101405.84
2023-05-12T15:46:36.439Z,101399.75
2023-05-12T15:49:08.114Z,101398.22
2023-05-12T15:51:51.744Z,101404.72
2023-05-12T15:54:19.784Z,101405.69
2023-05-12T15:56:51.145Z,101395.38
2023-05-12T15:59:20.635Z,101398.25
2023-05-12T16:01:50.910Z,101397.66
2023-05-12T16:04:18.549Z,101401.41
2023-05-12T16:06:46.463Z,101405.13
2023-05-12T16:09:16.353Z,101407.22
2023-05-12T16:11:46.213Z,101410.16
2023-05-12T16:14:16.914Z,101410.34
2023-05-12T16:16:59.849Z,101411.28
2023-05-12T16:19:27.422Z,101401.56
2023-05-12T16:21:58.043Z,101401.75
2023-05-12T16:24:28.590Z,101408.97
2023-05-12T16:26:56.763Z,101399.22
2023-05-12T16:29:24.880Z,101402.84
2023-05-12T16:31:52.106Z,101399.47
2023-05-12T16:34:29.482Z,101405.00
2023-05-12T16:36:57.081Z,101407.00
2023-05-12T16:39:38.943Z,101409.09
2023-05-12T16:42:07.723Z,101401.53
2023-05-12T16:44:37.085Z,101401.78
2023-05-12T16:47:04.771Z,101406.63
2023-05-12T16:49:32.436Z,101412.59
2023-05-12T16:51:59.692Z,101412.22
2023-05-12T16:54:31.902Z,101410.13
2023-05-12T16:57:03.488Z,101417.78
2023-05-12T16:59:32.633Z,101420.09
2023-05-12T17:02:06.441Z,101418.78
2023-05-12T17:04:34.653Z,101416.53
2023-05-12T17:07:05.105Z,101420.63
2023-05-12T17:09:35.227Z,101422.78
2023-05-12T17:12:04.825Z,101420.41
2023-05-12T17:14:34.751Z,101423.38
2023-05-12T17:17:02.462Z,101423.78
2023-05-12T17:19:33.809Z,101424.94
2023-05-12T17:22:01.413Z,101429.72
2023-05-12T17:24:29.631Z,101426.50
2023-05-12T17:26:57.720Z,101433.91
2023-05-12T17:29:39.728Z,101421.88
2023-05-12T17:32:07.795Z,101424.06
2023-05-12T17:34:38.260Z,101437.69
2023-05-12T17:37:06.625Z,101434.53
2023-05-12T17:39:34.383Z,101439.22
2023-05-12T17:42:13.503Z,101440.31
2023-05-12T17:44:43.381Z,101437.75
2023-05-12T17:47:13.995Z,101441.56
2023-05-12T17:49:42.610Z,101442.59
2023-05-12T17:52:19.732Z,101443.75
2023-05-12T17:54:47.260Z,101445.69
2023-05-12T17:57:15.812Z,101455.59
2023-05-12T17:59:43.673Z,101443.31
2023-05-12T18:02:13.555Z,101457.56
2023-05-12T18:04:41.905Z,101456.81
2023-05-12T18:07:09.481Z,101459.59
2023-05-12T18:09:38.981Z,101458.84
2023-05-12T18:12:10.150Z,101469.63
2023-05-12T18:14:37.523Z,101469.69
2023-05-12T18:17:05.483Z,101474.25
2023-05-12T18:19:32.740Z,101469.03
2023-05-12T18:22:49.341Z,101473.50
2023-05-12T18:24:53.028Z,101473.50
2023-05-12T18:27:20.662Z,101469.97
2023-05-12T18:29:47.786Z,101473.78
2023-05-12T18:35:39.377Z,101475.88
2023-05-12T18:38:13.211Z,101471.59
2023-05-12T18:40:40.476Z,101477.00
2023-05-12T18:43:07.963Z,101470.91
2023-05-12T18:45:37.795Z,101474.31
2023-05-12T18:48:05.781Z,101480.69
2023-05-12T18:50:32.904Z,101474.47
2023-05-12T18:53:00.575Z,101480.69
2023-05-12T18:55:32.069Z,101483.44
2023-05-12T18:57:59.641Z,101477.28
2023-05-12T19:00:32.475Z,101465.81
2023-05-12T19:03:03.186Z,101482.56
2023-05-12T19:05:33.938Z,101479.16
2023-05-12T19:08:02.501Z,101478.41
2023-05-12T19:10:38.549Z,101479.47
2023-05-12T19:13:07.258Z,101479.63
2023-05-12T19:15:34.656Z,101477.06
2023-05-12T19:18:02.153Z,101477.28
2023-05-12T19:20:30.774Z,101479.16
2023-05-12T19:22:59.859Z,101477.38
2023-05-12T19:25:27.236Z,101480.00
2023-05-12T19:27:55.037Z,101471.97
2023-05-12T19:30:23.891Z,101475.78
2023-05-12T19:32:51.822Z,101482.16
2023-05-12T19:35:19.666Z,101484.22
2023-05-12T19:37:47.453Z,101468.59
2023-05-12T19:40:14.744Z,101490.22
2023-05-12T19:42:42.751Z,101477.22
2023-05-12T19:45:10.725Z,101485.44
2023-05-12T19:47:38.338Z,101481.28
2023-05-12T19:50:06.100Z,101477.13
2023-05-12T19:52:34.575Z,101480.03
2023-05-12T19:55:01.668Z,101480.22
2023-05-12T19:57:32.052Z,101478.59
2023-05-12T19:59:59.468Z,101484.16
2023-05-12T20:02:30.953Z,101478.97
2023-05-12T20:05:01.733Z,101483.50
2023-05-12T20:07:29.438Z,101473.09
2023-05-12T20:09:57.721Z,101477.06
2023-05-12T20:12:25.287Z,101476.34
2023-05-12T20:14:52.324Z,101477.53
2023-05-12T20:17:21.883Z,101476.78
2023-05-12T20:19:50.517Z,101471.44
2023-05-12T20:22:20.756Z,101471.50
2023-05-12T20:24:48.845Z,101472.53
2023-05-12T20:27:19.253Z,101484.03
2023-05-12T20:29:46.383Z,101477.00
2023-05-12T20:32:15.154Z,101485.03
2023-05-12T20:34:43.060Z,101475.34
2023-05-12T20:37:11.000Z,101478.88
2023-05-12T20:39:37.990Z,101470.91
2023-05-12T20:42:06.438Z,101476.31
2023-05-12T20:44:33.571Z,101471.97
2023-05-12T20:47:03.298Z,101472.06
2023-05-12T20:49:30.897Z,101475.66
2023-05-12T20:51:58.355Z,101478.44
2023-05-12T20:54:25.583Z,101478.53
2023-05-12T20:56:53.150Z,101476.75
2023-05-12T20:59:20.178Z,101476.88
2023-05-12T21:01:47.739Z,101474.31
2023-05-12T21:04:15.176Z,101475.31
2023-05-12T21:06:43.745Z,101477.09
2023-05-12T21:09:10.653Z,101477.84
2023-05-12T21:11:39.345Z,101483.09
2023-05-12T21:14:07.396Z,101478.63
2023-05-12T21:16:35.368Z,101477.75
2023-05-12T21:19:05.448Z,101482.31
2023-05-12T21:21:32.905Z,101481.56
2023-05-12T21:24:00.053Z,101486.03
2023-05-12T21:26:43.846Z,101473.78
2023-05-12T21:29:14.085Z,101477.41
2023-05-12T21:31:41.460Z,101472.16
2023-05-12T21:34:09.975Z,101466.09
2023-05-12T21:36:37.336Z,101472.28
2023-05-12T21:39:04.893Z,101467.09
2023-05-12T21:41:32.685Z,101472.56
2023-05-12T21:43:59.705Z,101465.63
2023-05-12T21:46:27.242Z,101470.16
2023-05-12T21:48:54.722Z,101468.56
2023-05-12T21:51:22.113Z,101475.81
2023-05-12T21:53:49.215Z,101465.44
2023-05-12T21:56:19.372Z,101475.38
2023-05-12T21:58:46.322Z,101470.28
2023-05-12T22:01:15.367Z,101474.97
2023-05-12T22:03:54.002Z,101477.84
2023-05-12T22:06:35.648Z,101483.47
2023-05-12T22:09:02.862Z,101483.63
2023-05-12T22:11:30.171Z,101482.88
2023-05-12T22:13:57.327Z,101477.72
2023-05-12T22:16:31.168Z,101485.88
2023-05-12T22:19:01.629Z,101478.91
2023-05-12T22:21:29.046Z,101475.47
2023-05-12T22:23:57.226Z,101478.13
2023-05-12T22:26:24.515Z,101472.84
2023-05-12T22:28:51.468Z,101480.75
2023-05-12T22:31:18.878Z,101476.25
2023-05-12T22:33:45.864Z,101476.16
2023-05-12T22:36:13.135Z,101470.91
2023-05-12T22:38:40.156Z,101474.44
2023-05-12T22:41:07.398Z,101465.63
2023-05-12T22:43:34.376Z,101474.44
2023-05-12T22:46:01.640Z,101467.25
2023-05-12T22:48:30.586Z,101455.75
2023-05-12T22:50:59.336Z,101464.44
2023-05-12T22:53:28.306Z,101456.50
2023-05-12T22:55:55.858Z,101454.72
2023-05-12T22:58:22.865Z,101461.94
2023-05-12T23:00:50.192Z,101459.31
2023-05-12T23:03:17.125Z,101457.59
2023-05-12T23:05:44.422Z,101460.38
2023-05-12T23:08:11.368Z,101461.34
2023-05-12T23:10:38.638Z,101453.41
2023-05-12T23:13:05.583Z,101457.06
2023-05-12T23:15:32.891Z,101451.81
2023-05-12T23:17:59.936Z,101453.56
2023-05-12T23:20:27.462Z,101450.09
2023-05-12T23:22:54.468Z,101453.66
2023-05-12T23:25:21.978Z,101443.16
2023-05-12T23:27:48.972Z,101443.31
2023-05-12T23:30:16.757Z,101449.53
2023-05-12T23:32:45.661Z,101447.84
2023-05-12T23:35:14.081Z,101454.97
2023-05-12T23:37:41.061Z,101445.28
2023-05-12T23:40:08.900Z,101448.00
2023-05-12T23:42:36.160Z,101448.09
2023-05-12T23:45:03.677Z,101449.00
2023-05-12T23:47:30.865Z,101442.84
2023-05-12T23:49:58.321Z,101452.56
2023-05-12T23:52:25.533Z,101445.63
2023-05-12T23:54:53.276Z,101447.41
2023-05-12T23:57:20.460Z,101442.13
2023-05-12T23:59:48.795Z,101450.09
